Flight Track Log - Related Links

Times and Time Zones

All times are in EDT time to prevent confusion due to time zone crossing. See the N47NG flight status page for this flight to view local times or setup timezone preferences in your user account.

Time Position Orientation Groundspeed Altitude Reporting Facility
EDT Latitude Longitude Course Direction KTS MPH feet Rate Location/Type
Wed 02:14:42 PM 34.6872 -78.8300 32° Northeast 153 176 7,100  Level Washington Center
Wed 02:16:00 PM 34.9781 -78.7741 59° Northeast  Level Estimated
Wed 02:16:44 PM 34.7108 -78.7300 74° East 164 189 9,600  Level Washington Center
Wed 02:17:00 PM 34.9960 -78.6880 76° East  Level FlightAware Approximate
Wed 02:17:44 PM 34.7225 -78.6797 74° East 164 189 10,700  Level Washington Center
Wed 02:18:00 PM 35.0138 -78.6019 76° East  Level FlightAware Approximate
Wed 02:18:42 PM 34.7367 -78.6147 75° East 164 189 11,800  Level Washington Center
Wed 02:19:00 PM 35.0733 -78.5567 32° Northeast  Level Estimated
Wed 02:19:42 PM 34.7483 -78.5619 75° East 176 203 13,100  Level Washington Center
Wed 02:20:00 PM 35.1327 -78.5113 32° Northeast  Level Estimated
Wed 02:20:43 PM 34.7625 -78.4942 76° East 181 208 14,500  Level Washington Center
Wed 02:21:44 PM 34.7742 -78.4417 75° East 181 208 15,800 984 Climbing Washington Center
Wed 02:22:45 PM 34.7861 -78.3864 75° East 176 203 16,500 864 Climbing Washington Center
Wed 02:23:42 PM 34.8000 -78.3261 74° East 176 203 17,500 923 Climbing Washington Center
Wed 02:24:42 PM 34.8142 -78.2533 77° East 181 208 18,300 738 Climbing Washington Center
Wed 02:25:44 PM 34.8258 -78.1906 77° East 193 222 19,000 650 Climbing Washington Center
Wed 02:26:42 PM 34.8419 -78.1200 74° East 198 228 19,600 706 Climbing Washington Center
Wed 02:27:43 PM 34.8581 -78.0522 74° East 203 234 20,400 744 Climbing Washington Center
Wed 02:28:43 PM 34.8742 -77.9819 74° East 203 234 21,100 694 Climbing Washington Center
Wed 02:29:44 PM 34.9125 -77.9297 48° Northeast 203 234 21,800 706 Climbing Washington Center
Wed 02:30:42 PM 34.9592 -77.8956 31° Northeast 198 228 22,500 661 Climbing Washington Center
Wed 02:31:42 PM 35.0081 -77.8564 33° Northeast 203 234 23,100 650 Climbing Washington Center
Wed 02:32:42 PM 35.0567 -77.8172 33° Northeast 203 234 23,800 545 Climbing Washington Center
Wed 02:33:43 PM 35.1053 -77.7756 35° Northeast 203 234 24,200 492 Climbing Washington Center
Wed 02:34:44 PM 35.1542 -77.7336 35° Northeast 203 234 24,800 504 Climbing Washington Center
Wed 02:35:42 PM 35.2050 -77.6892 36° Northeast 208 239 25,200 407 Climbing Washington Center
Wed 02:36:42 PM 35.2558 -77.6447 36° Northeast 213 245 25,600 397 Climbing Washington Center
Wed 02:37:43 PM 35.3089 -77.6003 34° Northeast 218 251 26,000 397 Climbing Washington Center
Wed 02:38:43 PM 35.3639 -77.5533 35° Northeast 223 257 26,400 496 Climbing Washington Center
Wed 02:39:44 PM 35.4167 -77.5061 36° Northeast 223 257 27,000 298 Climbing Washington Center
Wed 02:40:44 PM 35.4697 -77.4614 34° Northeast 223 257 27,000  Level Washington Center
Wed 02:41:42 PM 35.5308 -77.4169 31° Northeast 233 268 27,000  Level Washington Center
Wed 02:42:42 PM 35.5919 -77.3672 33° Northeast 252 290 27,000  Level Washington Center
Wed 02:43:43 PM 35.6553 -77.3228 30° Northeast 258 297 27,000  Level Washington Center
Wed 02:44:44 PM 35.7208 -77.2728 32° Northeast 263 303 27,000  Level Washington Center
Wed 02:45:42 PM 35.7861 -77.2256 30° Northeast 263 303 27,000  Level Washington Center
Wed 02:46:42 PM 35.8536 -77.1733 32° Northeast 273 314 27,000  Level Washington Center
Wed 02:47:43 PM 35.9147 -77.1256 32° Northeast 273 314 27,000  Level Washington Center
Wed 02:48:42 PM 35.9800 -77.0756 32° Northeast 273 314 27,000  Level Washington Center
Wed 02:49:42 PM 36.0472 -77.0256 31° Northeast 273 314 27,000  Level Washington Center
Wed 02:50:43 PM 36.1147 -76.9753 31° Northeast 273 314 27,000  Level Washington Center
Wed 02:51:44 PM 36.1819 -76.9250 31° Northeast 273 314 27,000  Level Washington Center
Wed 02:52:42 PM 36.2472 -76.8747 32° Northeast 273 314 27,000  Level Washington Center
Wed 02:53:42 PM 36.3144 -76.8242 31° Northeast 273 314 27,000  Level Washington Center
Wed 02:54:44 PM 36.3797 -76.7761 31° Northeast 273 314 27,000  Level Washington Center
Wed 02:55:44 PM 36.4450 -76.7256 32° Northeast 273 314 27,000  Level Washington Center
Wed 02:56:42 PM 36.5119 -76.6772 30° Northeast 273 314 27,000  Level Washington Center
Wed 02:57:43 PM 36.5794 -76.6239 32° Northeast 273 314 27,000  Level Washington Center
Wed 02:58:44 PM 36.6422 -76.5756 32° Northeast 273 314 27,000  Level Washington Center
Wed 02:59:42 PM 36.7158 -76.5194 31° Northeast 273 314 27,000  Level Washington Center
Wed 03:00:42 PM 36.7744 -76.4736 32° Northeast 273 314 27,000  Level Washington Center
Wed 03:01:44 PM 36.8394 -76.4225 32° Northeast 273 314 27,000  Level Washington Center
Wed 03:02:44 PM 36.9044 -76.3711 32° Northeast 273 314 27,000  Level Washington Center
Wed 03:03:42 PM 36.9694 -76.3197 32° Northeast 273 314 27,000  Level Washington Center
Wed 03:04:44 PM 37.0367 -76.2683 31° Northeast 273 314 27,000  Level Washington Center
Wed 03:05:44 PM 37.1036 -76.2169 31° Northeast 273 314 27,000  Level Washington Center
Wed 03:06:44 PM 37.1686 -76.1653 32° Northeast 273 314 27,000  Level Washington Center
Wed 03:07:42 PM 37.2397 -76.1161 29° Northeast 273 314 27,000  Level Washington Center
Wed 03:08:42 PM 37.3150 -76.0592 31° Northeast 273 314 27,000  Level Washington Center
Wed 03:09:43 PM 37.3800 -76.0075 32° Northeast 273 314 27,000  Level Washington Center
Wed 03:10:43 PM 37.4489 -75.9556 31° Northeast 273 314 27,000  Level Washington Center
Wed 03:11:44 PM 37.5178 -75.9033 31° Northeast 273 314 27,000  Level Washington Center
Wed 03:12:44 PM 37.5847 -75.8486 33° Northeast 273 314 27,000  Level Washington Center
Wed 03:13:42 PM 37.6558 -75.7939 31° Northeast 278 320 27,000  Level Washington Center
Wed 03:14:42 PM 37.7247 -75.7414 31° Northeast 283 326 27,000  Level Washington Center
Wed 03:15:43 PM 37.7936 -75.6892 31° Northeast 283 326 27,000  Level Washington Center
Wed 03:16:43 PM 37.8625 -75.6364 31° Northeast 283 326 27,000  Level Washington Center
Wed 03:17:44 PM 37.9311 -75.5811 32° Northeast 283 326 27,000  Level Washington Center
Wed 03:18:44 PM 38.0000 -75.5286 31° Northeast 283 326 27,000  Level Washington Center
Wed 03:19:42 PM 38.0667 -75.4808 29° Northeast 278 320 27,000 -51 Level Washington Center
Wed 03:20:42 PM 38.1333 -75.4308 31° Northeast 278 320 26,900  Descending Washington Center
Wed 03:21:43 PM 38.1981 -75.3778 33° Northeast 272 313 27,000 50 Climbing Washington Center
Wed 03:22:43 PM 38.2603 -75.3272 33° Northeast 272 313 27,000  Level Washington Center
Wed 03:23:44 PM 38.3228 -75.2819 30° Northeast 266 306 27,000  Level Washington Center
Wed 03:24:42 PM 38.3853 -75.2236 36° Northeast 266 306 27,000  Level Washington Center
Wed 03:25:42 PM 38.4475 -75.1808 28° Northeast 266 306 27,000  Level Washington Center
Wed 03:26:42 PM 38.5100 -75.1300 32° Northeast 261 300 27,000  Level Washington Center
Wed 03:27:43 PM 38.5703 -75.0844 31° Northeast 256 295 27,000  Level Washington Center
Wed 03:28:43 PM 38.6306 -75.0361 32° Northeast 256 295 27,000  Level Washington Center
Wed 03:29:44 PM 38.6908 -74.9878 32° Northeast 256 295 27,000  Level Washington Center
Wed 03:30:44 PM 38.7508 -74.9394 32° Northeast 256 295 27,000  Level Washington Center
Wed 03:31:44 PM 38.8089 -74.8911 33° Northeast 250 288 27,000  Level Washington Center
Wed 03:32:42 PM 38.8628 -74.8372 38° Northeast 250 288 27,000  Level Washington Center
Wed 03:33:43 PM 38.9147 -74.7806 40° Northeast 245 282 27,000 -49 Level Washington Center
Wed 03:34:44 PM 38.9683 -74.7239 39° Northeast 245 282 26,900 -347 Descending Washington Center
Wed 03:35:44 PM 39.0242 -74.6672 38° Northeast 250 288 26,300 -661 Descending Washington Center
Wed 03:36:42 PM 39.0822 -74.6050 40° Northeast 261 300 25,600 -674 Descending Washington Center
Wed 03:38:51 PM 39.2111 -74.4711 39° Northeast 266 306 24,200 -635 Descending New York Center
Wed 03:39:51 PM 39.2717 -74.4072 39° Northeast 266 306 23,600 -600 Descending New York Center
Wed 03:40:51 PM 39.3275 -74.3483 39° Northeast 266 306 23,000 -600 Descending New York Center
Wed 03:41:51 PM 39.3900 -74.2817 39° Northeast 266 306 22,400 -650 Descending New York Center
Wed 03:42:51 PM 39.4503 -74.2175 39° Northeast 266 306 21,700 -650 Descending New York Center
Wed 03:43:51 PM 39.5106 -74.1558 38° Northeast 271 312 21,100 -400 Descending New York Center
Wed 03:44:51 PM 39.5606 -74.0803 49° Northeast 266 306 20,900 -600 Descending New York Center
Wed 03:45:51 PM 39.6108 -74.0044 49° Northeast 266 306 19,900 -1,000 Descending New York Center
Wed 03:46:51 PM 39.6628 -73.9258 49° Northeast 272 313 18,900 -950 Descending New York Center
Wed 03:47:51 PM 39.7044 -73.8575 52° Northeast 278 320 18,000 -750 Descending New York Center
Wed 03:48:51 PM 39.7478 -73.7919 49° Northeast 258 297 17,400 -850 Descending New York Center
Wed 03:49:51 PM 39.7892 -73.7236 52° Northeast 235 270 16,300 -1,050 Descending New York Center
Wed 03:50:51 PM 39.8347 -73.6525 50° Northeast 235 270 15,300 -1,000 Descending New York Center
Wed 03:51:51 PM 39.8900 -73.6033 34° Northeast 240 276 14,300 -1,000 Descending New York Center
Wed 03:52:51 PM 39.9656 -73.5822 12° North 246 283 13,300 -1,050 Descending New York Center
Wed 03:53:51 PM 40.0392 -73.5608 13° North 267 307 12,200 -900 Descending New York Center
Wed 03:54:51 PM 40.1144 -73.5394 12° North 272 313 11,500 -350 Descending New York Center
Wed 03:55:51 PM 40.1858 -73.5178 13° North 272 313 11,500  Level New York Center
Wed 03:56:51 PM 40.2531 -73.4986 12° North 259 298 11,500  Level New York Center
Wed 03:57:51 PM 40.3244 -73.4797 11° North 254 292 11,500  Level New York Center
Wed 03:58:51 PM 40.3917 -73.4581 14° North 259 298 11,500  Level New York Center
Wed 03:59:51 PM 40.4608 -73.4389 12° North 253 291 11,500  Level New York Center
Wed 04:00:51 PM 40.5236 -73.4194 13° North 248 285 11,500  Level New York Center
Wed 04:01:51 PM 40.5972 -73.3978 13° North 248 285 11,500 -400 Level New York Center
Wed 04:02:51 PM 40.6619 -73.3811 11° North 248 285 10,700 -800 Descending New York Center
Wed 04:03:51 PM 40.7375 -73.3567 14° North 253 291 9,900 -750 Descending New York Center
Wed 04:04:51 PM 40.8008 -73.3289 18° North 258 297 9,200 -829 Descending New York Center
Wed 04:05:54 PM 40.8833 -73.3000 15° North 257 296 8,200 -837 Descending New York TRACON
Wed 04:07:00 PM 40.9500 -73.2667 21° North 260 299 7,400 -750 Descending New York TRACON
Wed 04:07:54 PM 41.0167 -73.2500 11° North 248 285 6,700 -737 Descending New York TRACON
Wed 04:08:54 PM 41.0833 -73.2167 21° North 247 284 6,000 -750 Descending New York TRACON
Wed 04:09:54 PM 41.1500 -73.2000 11° North 243 280 5,200 -750 Descending New York TRACON
Wed 04:10:54 PM 41.2167 -73.1833 11° North 236 272 4,500 -700 Descending New York TRACON

Login

Don't have an account? Register now (free) for customized features, flight alerts, and more!